sensor_id;sensor_type;location;lat;lon;timestamp;P1;durP1;ratioP1;P2;durP2;ratioP2
22166;SDS011;11249;52.468;13.776;2023-08-17T00:01:34;8.98;;;3.97;;
22166;SDS011;11249;52.468;13.776;2023-08-17T00:04:01;5.43;;;3.08;;
22166;SDS011;11249;52.468;13.776;2023-08-17T00:06:28;5.43;;;3.08;;
22166;SDS011;11249;52.468;13.776;2023-08-17T00:08:55;7.85;;;3.63;;
22166;SDS011;11249;52.468;13.776;2023-08-17T00:11:22;5.68;;;3.58;;
22166;SDS011;11249;52.468;13.776;2023-08-17T00:13:48;9.23;;;3.67;;
22166;SDS011;11249;52.468;13.776;2023-08-17T00:16:15;7.45;;;3.40;;
22166;SDS011;11249;52.468;13.776;2023-08-17T00:18:42;9.10;;;3.95;;
22166;SDS011;11249;52.468;13.776;2023-08-17T00:21:09;10.07;;;4.10;;
22166;SDS011;11249;52.468;13.776;2023-08-17T00:23:36;6.03;;;3.83;;
22166;SDS011;11249;52.468;13.776;2023-08-17T00:26:02;8.57;;;3.85;;
22166;SDS011;11249;52.468;13.776;2023-08-17T00:28:29;6.15;;;3.92;;
22166;SDS011;11249;52.468;13.776;2023-08-17T00:30:56;7.95;;;4.05;;
22166;SDS011;11249;52.468;13.776;2023-08-17T00:33:22;6.63;;;3.80;;
22166;SDS011;11249;52.468;13.776;2023-08-17T00:35:49;7.07;;;3.92;;
22166;SDS011;11249;52.468;13.776;2023-08-17T00:38:16;7.72;;;3.83;;
22166;SDS011;11249;52.468;13.776;2023-08-17T00:40:42;8.25;;;3.97;;
22166;SDS011;11249;52.468;13.776;2023-08-17T00:43:09;9.00;;;3.88;;
22166;SDS011;11249;52.468;13.776;2023-08-17T00:45:36;8.25;;;3.65;;
22166;SDS011;11249;52.468;13.776;2023-08-17T00:48:05;7.75;;;4.00;;
22166;SDS011;11249;52.468;13.776;2023-08-17T00:50:34;4.43;;;3.35;;
22166;SDS011;11249;52.468;13.776;2023-08-17T00:53:02;6.88;;;3.47;;
22166;SDS011;11249;52.468;13.776;2023-08-17T00:55:30;7.43;;;3.85;;
22166;SDS011;11249;52.468;13.776;2023-08-17T00:57:57;6.65;;;3.92;;
22166;SDS011;11249;52.468;13.776;2023-08-17T01:00:24;8.07;;;3.53;;
22166;SDS011;11249;52.468;13.776;2023-08-17T01:02:53;6.68;;;3.97;;
22166;SDS011;11249;52.468;13.776;2023-08-17T01:05:21;6.15;;;3.28;;
22166;SDS011;11249;52.468;13.776;2023-08-17T01:07:49;8.38;;;3.67;;
22166;SDS011;11249;52.468;13.776;2023-08-17T01:10:15;5.07;;;3.67;;
22166;SDS011;11249;52.468;13.776;2023-08-17T01:12:52;5.45;;;3.15;;
22166;SDS011;11249;52.468;13.776;2023-08-17T01:15:31;7.03;;;3.72;;
22166;SDS011;11249;52.468;13.776;2023-08-17T01:20:57;9.68;;;3.90;;
22166;SDS011;11249;52.468;13.776;2023-08-17T01:23:24;3.92;;;3.35;;
22166;SDS011;11249;52.468;13.776;2023-08-17T01:25:51;10.30;;;4.45;;
22166;SDS011;11249;52.468;13.776;2023-08-17T01:28:19;11.45;;;3.97;;
22166;SDS011;11249;52.468;13.776;2023-08-17T01:30:53;9.73;;;3.58;;
22166;SDS011;11249;52.468;13.776;2023-08-17T01:33:27;7.95;;;4.15;;
22166;SDS011;11249;52.468;13.776;2023-08-17T01:36:05;8.30;;;3.75;;
22166;SDS011;11249;52.468;13.776;2023-08-17T01:38:37;10.20;;;4.00;;
22166;SDS011;11249;52.468;13.776;2023-08-17T01:41:06;7.32;;;3.90;;
22166;SDS011;11249;52.468;13.776;2023-08-17T01:43:40;7.93;;;3.88;;
22166;SDS011;11249;52.468;13.776;2023-08-17T01:46:13;11.30;;;4.10;;
22166;SDS011;11249;52.468;13.776;2023-08-17T01:48:41;6.97;;;3.40;;
22166;SDS011;11249;52.468;13.776;2023-08-17T01:51:10;5.63;;;3.55;;
22166;SDS011;11249;52.468;13.776;2023-08-17T01:53:42;5.88;;;3.67;;
22166;SDS011;11249;52.468;13.776;2023-08-17T01:56:09;8.77;;;3.72;;
22166;SDS011;11249;52.468;13.776;2023-08-17T01:58:36;4.80;;;3.67;;
22166;SDS011;11249;52.468;13.776;2023-08-17T02:01:02;9.80;;;4.00;;
22166;SDS011;11249;52.468;13.776;2023-08-17T02:03:29;10.52;;;4.20;;
22166;SDS011;11249;52.468;13.776;2023-08-17T02:05:56;7.00;;;3.78;;
22166;SDS011;11249;52.468;13.776;2023-08-17T02:08:23;6.97;;;3.60;;
22166;SDS011;11249;52.468;13.776;2023-08-17T02:10:50;6.93;;;3.70;;
22166;SDS011;11249;52.468;13.776;2023-08-17T02:13:17;9.82;;;3.90;;
22166;SDS011;11249;52.468;13.776;2023-08-17T02:15:44;7.25;;;3.70;;
22166;SDS011;11249;52.468;13.776;2023-08-17T02:18:14;7.38;;;3.60;;
22166;SDS011;11249;52.468;13.776;2023-08-17T02:20:40;8.10;;;3.67;;
22166;SDS011;11249;52.468;13.776;2023-08-17T02:23:07;4.40;;;3.40;;
22166;SDS011;11249;52.468;13.776;2023-08-17T02:25:34;7.93;;;3.80;;
22166;SDS011;11249;52.468;13.776;2023-08-17T02:28:04;5.18;;;4.22;;
22166;SDS011;11249;52.468;13.776;2023-08-17T02:30:31;6.32;;;3.80;;
22166;SDS011;11249;52.468;13.776;2023-08-17T02:32:58;9.90;;;3.80;;
22166;SDS011;11249;52.468;13.776;2023-08-17T02:35:25;9.82;;;3.97;;
22166;SDS011;11249;52.468;13.776;2023-08-17T02:37:51;9.98;;;4.35;;
22166;SDS011;11249;52.468;13.776;2023-08-17T02:40:18;6.38;;;3.67;;
22166;SDS011;11249;52.468;13.776;2023-08-17T02:42:45;5.35;;;3.88;;
22166;SDS011;11249;52.468;13.776;2023-08-17T02:45:11;11.15;;;4.60;;
22166;SDS011;11249;52.468;13.776;2023-08-17T02:47:38;8.48;;;4.85;;
22166;SDS011;11249;52.468;13.776;2023-08-17T02:50:05;8.10;;;4.70;;
22166;SDS011;11249;52.468;13.776;2023-08-17T02:52:32;9.63;;;5.07;;
22166;SDS011;11249;52.468;13.776;2023-08-17T02:54:59;11.95;;;4.95;;
22166;SDS011;11249;52.468;13.776;2023-08-17T02:57:25;9.93;;;4.55;;
22166;SDS011;11249;52.468;13.776;2023-08-17T02:59:52;8.95;;;3.83;;
22166;SDS011;11249;52.468;13.776;2023-08-17T03:02:19;7.47;;;4.20;;
22166;SDS011;11249;52.468;13.776;2023-08-17T03:04:46;5.90;;;4.15;;
22166;SDS011;11249;52.468;13.776;2023-08-17T03:07:12;10.60;;;3.63;;
22166;SDS011;11249;52.468;13.776;2023-08-17T03:09:39;7.75;;;4.10;;
22166;SDS011;11249;52.468;13.776;2023-08-17T03:12:06;9.05;;;4.15;;
22166;SDS011;11249;52.468;13.776;2023-08-17T03:14:33;7.45;;;4.03;;
22166;SDS011;11249;52.468;13.776;2023-08-17T03:16:59;5.22;;;3.70;;
22166;SDS011;11249;52.468;13.776;2023-08-17T03:19:26;5.40;;;4.20;;
22166;SDS011;11249;52.468;13.776;2023-08-17T03:21:53;10.27;;;4.75;;
22166;SDS011;11249;52.468;13.776;2023-08-17T03:24:19;13.10;;;4.20;;
22166;SDS011;11249;52.468;13.776;2023-08-17T03:26:46;8.52;;;4.43;;
22166;SDS011;11249;52.468;13.776;2023-08-17T03:29:13;13.27;;;4.97;;
22166;SDS011;11249;52.468;13.776;2023-08-17T03:31:39;5.72;;;4.20;;
22166;SDS011;11249;52.468;13.776;2023-08-17T03:34:06;10.80;;;4.95;;
22166;SDS011;11249;52.468;13.776;2023-08-17T03:36:33;9.13;;;4.85;;
22166;SDS011;11249;52.468;13.776;2023-08-17T03:38:59;11.60;;;5.35;;
22166;SDS011;11249;52.468;13.776;2023-08-17T03:41:26;9.02;;;4.63;;
22166;SDS011;11249;52.468;13.776;2023-08-17T03:43:52;8.23;;;4.65;;
22166;SDS011;11249;52.468;13.776;2023-08-17T03:46:19;8.73;;;4.32;;
22166;SDS011;11249;52.468;13.776;2023-08-17T03:48:46;11.10;;;4.45;;
22166;SDS011;11249;52.468;13.776;2023-08-17T03:51:12;9.82;;;5.15;;
22166;SDS011;11249;52.468;13.776;2023-08-17T03:53:39;7.55;;;4.55;;
22166;SDS011;11249;52.468;13.776;2023-08-17T03:56:06;7.90;;;4.25;;
22166;SDS011;11249;52.468;13.776;2023-08-17T03:58:32;5.25;;;4.13;;
22166;SDS011;11249;52.468;13.776;2023-08-17T04:01:01;5.75;;;3.55;;
22166;SDS011;11249;52.468;13.776;2023-08-17T04:03:29;9.63;;;4.10;;
22166;SDS011;11249;52.468;13.776;2023-08-17T04:05:56;7.70;;;4.05;;
22166;SDS011;11249;52.468;13.776;2023-08-17T04:08:23;6.55;;;4.38;;
22166;SDS011;11249;52.468;13.776;2023-08-17T04:10:49;6.78;;;3.45;;
22166;SDS011;11249;52.468;13.776;2023-08-17T04:13:16;8.70;;;4.30;;
22166;SDS011;11249;52.468;13.776;2023-08-17T04:15:42;6.38;;;3.80;;
22166;SDS011;11249;52.468;13.776;2023-08-17T04:18:09;6.30;;;3.38;;
22166;SDS011;11249;52.468;13.776;2023-08-17T04:20:36;12.77;;;4.18;;
22166;SDS011;11249;52.468;13.776;2023-08-17T04:23:03;10.20;;;3.35;;
22166;SDS011;11249;52.468;13.776;2023-08-17T04:25:30;6.15;;;3.35;;
22166;SDS011;11249;52.468;13.776;2023-08-17T04:27:56;8.25;;;3.83;;
22166;SDS011;11249;52.468;13.776;2023-08-17T04:30:24;7.07;;;3.58;;
22166;SDS011;11249;52.468;13.776;2023-08-17T04:32:51;7.80;;;3.80;;
22166;SDS011;11249;52.468;13.776;2023-08-17T04:35:19;4.53;;;3.38;;
22166;SDS011;11249;52.468;13.776;2023-08-17T04:37:46;6.35;;;3.25;;
22166;SDS011;11249;52.468;13.776;2023-08-17T04:40:14;6.32;;;3.08;;
22166;SDS011;11249;52.468;13.776;2023-08-17T04:42:41;8.20;;;3.28;;
22166;SDS011;11249;52.468;13.776;2023-08-17T04:45:09;8.93;;;3.92;;
22166;SDS011;11249;52.468;13.776;2023-08-17T04:47:36;7.20;;;3.42;;
22166;SDS011;11249;52.468;13.776;2023-08-17T04:50:03;5.28;;;3.20;;
22166;SDS011;11249;52.468;13.776;2023-08-17T04:52:31;5.55;;;2.60;;
22166;SDS011;11249;52.468;13.776;2023-08-17T04:54:57;9.00;;;2.90;;
22166;SDS011;11249;52.468;13.776;2023-08-17T04:57:24;4.28;;;2.60;;
22166;SDS011;11249;52.468;13.776;2023-08-17T04:59:52;8.52;;;2.85;;
22166;SDS011;11249;52.468;13.776;2023-08-17T05:02:19;4.00;;;2.92;;
22166;SDS011;11249;52.468;13.776;2023-08-17T05:04:46;4.45;;;2.70;;
22166;SDS011;11249;52.468;13.776;2023-08-17T05:07:12;3.53;;;2.50;;
22166;SDS011;11249;52.468;13.776;2023-08-17T05:09:39;6.82;;;2.60;;
22166;SDS011;11249;52.468;13.776;2023-08-17T05:12:06;4.28;;;2.65;;
22166;SDS011;11249;52.468;13.776;2023-08-17T05:14:33;5.05;;;2.70;;
22166;SDS011;11249;52.468;13.776;2023-08-17T05:17:00;5.38;;;2.80;;
22166;SDS011;11249;52.468;13.776;2023-08-17T05:19:27;7.53;;;2.55;;
22166;SDS011;11249;52.468;13.776;2023-08-17T05:21:53;4.07;;;2.60;;
22166;SDS011;11249;52.468;13.776;2023-08-17T05:24:21;4.85;;;2.40;;
22166;SDS011;11249;52.468;13.776;2023-08-17T05:26:47;3.72;;;2.65;;
22166;SDS011;11249;52.468;13.776;2023-08-17T05:29:14;4.38;;;2.90;;
22166;SDS011;11249;52.468;13.776;2023-08-17T05:31:41;6.03;;;3.00;;
22166;SDS011;11249;52.468;13.776;2023-08-17T05:34:08;6.00;;;3.00;;
22166;SDS011;11249;52.468;13.776;2023-08-17T05:36:35;4.80;;;2.40;;
22166;SDS011;11249;52.468;13.776;2023-08-17T05:39:01;5.25;;;2.42;;
22166;SDS011;11249;52.468;13.776;2023-08-17T05:41:28;6.97;;;3.10;;
22166;SDS011;11249;52.468;13.776;2023-08-17T05:43:55;5.15;;;2.60;;
22166;SDS011;11249;52.468;13.776;2023-08-17T05:46:22;5.65;;;2.70;;
22166;SDS011;11249;52.468;13.776;2023-08-17T05:48:48;5.15;;;2.60;;
22166;SDS011;11249;52.468;13.776;2023-08-17T05:51:15;6.00;;;2.55;;
22166;SDS011;11249;52.468;13.776;2023-08-17T05:53:42;4.47;;;2.70;;
22166;SDS011;11249;52.468;13.776;2023-08-17T05:56:09;7.45;;;2.55;;
22166;SDS011;11249;52.468;13.776;2023-08-17T05:58:36;3.88;;;2.85;;
22166;SDS011;11249;52.468;13.776;2023-08-17T06:01:09;8.73;;;3.13;;
22166;SDS011;11249;52.468;13.776;2023-08-17T06:03:37;4.40;;;2.30;;
22166;SDS011;11249;52.468;13.776;2023-08-17T06:06:04;5.07;;;2.70;;
22166;SDS011;11249;52.468;13.776;2023-08-17T06:08:34;5.43;;;2.40;;
22166;SDS011;11249;52.468;13.776;2023-08-17T06:11:00;5.63;;;2.97;;
22166;SDS011;11249;52.468;13.776;2023-08-17T06:13:27;4.80;;;2.92;;
22166;SDS011;11249;52.468;13.776;2023-08-17T06:15:55;7.03;;;2.80;;
22166;SDS011;11249;52.468;13.776;2023-08-17T06:18:24;6.55;;;2.60;;
22166;SDS011;11249;52.468;13.776;2023-08-17T06:20:51;8.70;;;2.90;;
22166;SDS011;11249;52.468;13.776;2023-08-17T06:23:20;3.55;;;2.90;;
22166;SDS011;11249;52.468;13.776;2023-08-17T06:25:47;6.50;;;2.42;;
22166;SDS011;11249;52.468;13.776;2023-08-17T06:28:14;3.15;;;1.90;;
22166;SDS011;11249;52.468;13.776;2023-08-17T06:30:40;5.72;;;2.30;;
22166;SDS011;11249;52.468;13.776;2023-08-17T06:33:07;4.72;;;2.17;;
22166;SDS011;11249;52.468;13.776;2023-08-17T06:35:34;7.88;;;3.20;;
22166;SDS011;11249;52.468;13.776;2023-08-17T06:38:00;3.10;;;2.22;;
22166;SDS011;11249;52.468;13.776;2023-08-17T06:40:27;5.28;;;2.45;;
22166;SDS011;11249;52.468;13.776;2023-08-17T06:42:54;5.15;;;3.00;;
22166;SDS011;11249;52.468;13.776;2023-08-17T06:45:21;3.67;;;2.50;;
22166;SDS011;11249;52.468;13.776;2023-08-17T06:47:49;4.05;;;2.17;;
22166;SDS011;11249;52.468;13.776;2023-08-17T06:50:16;8.02;;;4.45;;
22166;SDS011;11249;52.468;13.776;2023-08-17T06:52:43;4.97;;;3.40;;
22166;SDS011;11249;52.468;13.776;2023-08-17T06:55:10;5.85;;;2.80;;
22166;SDS011;11249;52.468;13.776;2023-08-17T06:57:37;4.45;;;2.83;;
22166;SDS011;11249;52.468;13.776;2023-08-17T07:00:04;5.93;;;3.00;;
22166;SDS011;11249;52.468;13.776;2023-08-17T07:02:32;3.00;;;2.70;;
22166;SDS011;11249;52.468;13.776;2023-08-17T07:05:17;3.47;;;2.85;;
22166;SDS011;11249;52.468;13.776;2023-08-17T07:07:45;4.00;;;2.55;;
22166;SDS011;11249;52.468;13.776;2023-08-17T07:10:12;5.38;;;2.80;;
22166;SDS011;11249;52.468;13.776;2023-08-17T07:12:39;8.52;;;3.20;;
22166;SDS011;11249;52.468;13.776;2023-08-17T07:15:06;6.10;;;3.10;;
22166;SDS011;11249;52.468;13.776;2023-08-17T07:17:33;4.60;;;2.95;;
22166;SDS011;11249;52.468;13.776;2023-08-17T07:20:01;6.78;;;3.42;;
22166;SDS011;11249;52.468;13.776;2023-08-17T07:22:30;4.90;;;3.42;;
22166;SDS011;11249;52.468;13.776;2023-08-17T07:24:57;8.23;;;3.85;;
22166;SDS011;11249;52.468;13.776;2023-08-17T07:27:24;8.45;;;3.60;;
22166;SDS011;11249;52.468;13.776;2023-08-17T07:29:52;9.80;;;3.08;;
22166;SDS011;11249;52.468;13.776;2023-08-17T07:32:18;5.38;;;3.40;;
22166;SDS011;11249;52.468;13.776;2023-08-17T07:34:47;5.60;;;3.33;;
22166;SDS011;11249;52.468;13.776;2023-08-17T07:37:14;7.10;;;3.40;;
22166;SDS011;11249;52.468;13.776;2023-08-17T07:39:41;5.88;;;2.88;;
22166;SDS011;11249;52.468;13.776;2023-08-17T07:42:08;8.35;;;3.35;;
22166;SDS011;11249;52.468;13.776;2023-08-17T07:44:35;4.65;;;2.80;;
22166;SDS011;11249;52.468;13.776;2023-08-17T07:47:02;13.48;;;2.97;;
22166;SDS011;11249;52.468;13.776;2023-08-17T07:49:29;6.22;;;3.45;;
22166;SDS011;11249;52.468;13.776;2023-08-17T07:51:58;9.07;;;3.13;;
22166;SDS011;11249;52.468;13.776;2023-08-17T07:54:26;4.47;;;2.92;;
22166;SDS011;11249;52.468;13.776;2023-08-17T07:56:53;6.07;;;3.60;;
22166;SDS011;11249;52.468;13.776;2023-08-17T07:59:19;3.03;;;2.40;;
22166;SDS011;11249;52.468;13.776;2023-08-17T08:01:46;8.23;;;3.08;;
22166;SDS011;11249;52.468;13.776;2023-08-17T08:04:13;6.78;;;3.17;;
22166;SDS011;11249;52.468;13.776;2023-08-17T08:06:39;7.50;;;3.28;;
22166;SDS011;11249;52.468;13.776;2023-08-17T08:09:06;3.65;;;2.45;;
22166;SDS011;11249;52.468;13.776;2023-08-17T08:11:33;8.68;;;3.10;;
22166;SDS011;11249;52.468;13.776;2023-08-17T08:14:00;5.85;;;3.17;;
22166;SDS011;11249;52.468;13.776;2023-08-17T08:16:27;5.97;;;3.50;;
22166;SDS011;11249;52.468;13.776;2023-08-17T08:18:57;4.70;;;3.08;;
22166;SDS011;11249;52.468;13.776;2023-08-17T08:21:24;3.90;;;2.97;;
22166;SDS011;11249;52.468;13.776;2023-08-17T08:23:50;3.90;;;2.97;;
22166;SDS011;11249;52.468;13.776;2023-08-17T08:26:17;6.18;;;2.45;;
22166;SDS011;11249;52.468;13.776;2023-08-17T08:28:44;5.13;;;2.88;;
22166;SDS011;11249;52.468;13.776;2023-08-17T08:31:11;4.80;;;2.97;;
22166;SDS011;11249;52.468;13.776;2023-08-17T08:33:38;5.80;;;2.80;;
22166;SDS011;11249;52.468;13.776;2023-08-17T08:36:05;5.53;;;2.95;;
22166;SDS011;11249;52.468;13.776;2023-08-17T08:38:35;9.45;;;4.13;;
22166;SDS011;11249;52.468;13.776;2023-08-17T08:41:01;4.05;;;3.08;;
22166;SDS011;11249;52.468;13.776;2023-08-17T08:43:29;4.70;;;2.88;;
22166;SDS011;11249;52.468;13.776;2023-08-17T08:45:56;6.93;;;3.30;;
22166;SDS011;11249;52.468;13.776;2023-08-17T08:48:26;3.40;;;3.10;;
22166;SDS011;11249;52.468;13.776;2023-08-17T08:50:54;5.65;;;2.78;;
22166;SDS011;11249;52.468;13.776;2023-08-17T08:53:28;5.70;;;3.20;;
22166;SDS011;11249;52.468;13.776;2023-08-17T08:56:02;5.40;;;2.90;;
22166;SDS011;11249;52.468;13.776;2023-08-17T08:58:29;5.95;;;2.78;;
22166;SDS011;11249;52.468;13.776;2023-08-17T09:00:57;7.22;;;3.35;;
22166;SDS011;11249;52.468;13.776;2023-08-17T09:03:26;5.53;;;3.50;;
22166;SDS011;11249;52.468;13.776;2023-08-17T09:05:53;4.43;;;3.22;;
22166;SDS011;11249;52.468;13.776;2023-08-17T09:08:22;3.22;;;2.90;;
22166;SDS011;11249;52.468;13.776;2023-08-17T09:10:57;4.05;;;2.90;;
22166;SDS011;11249;52.468;13.776;2023-08-17T09:13:24;5.93;;;3.05;;
22166;SDS011;11249;52.468;13.776;2023-08-17T09:15:50;7.88;;;3.70;;
22166;SDS011;11249;52.468;13.776;2023-08-17T09:18:17;5.45;;;3.47;;
22166;SDS011;11249;52.468;13.776;2023-08-17T09:20:46;8.25;;;3.10;;
22166;SDS011;11249;52.468;13.776;2023-08-17T09:23:15;5.30;;;3.27;;
22166;SDS011;11249;52.468;13.776;2023-08-17T09:25:46;5.07;;;3.75;;
22166;SDS011;11249;52.468;13.776;2023-08-17T09:28:14;4.57;;;3.40;;
22166;SDS011;11249;52.468;13.776;2023-08-17T09:30:53;4.80;;;3.65;;
22166;SDS011;11249;52.468;13.776;2023-08-17T09:33:21;5.43;;;3.42;;
22166;SDS011;11249;52.468;13.776;2023-08-17T09:35:56;5.15;;;3.85;;
22166;SDS011;11249;52.468;13.776;2023-08-17T09:38:26;5.63;;;3.58;;
22166;SDS011;11249;52.468;13.776;2023-08-17T09:40:53;7.85;;;3.92;;
22166;SDS011;11249;52.468;13.776;2023-08-17T09:43:20;5.00;;;3.78;;
22166;SDS011;11249;52.468;13.776;2023-08-17T09:45:48;7.20;;;4.00;;
22166;SDS011;11249;52.468;13.776;2023-08-17T09:48:16;6.72;;;3.78;;
22166;SDS011;11249;52.468;13.776;2023-08-17T09:50:44;5.57;;;3.92;;
22166;SDS011;11249;52.468;13.776;2023-08-17T09:53:15;6.63;;;3.60;;
22166;SDS011;11249;52.468;13.776;2023-08-17T09:55:44;5.95;;;3.83;;
22166;SDS011;11249;52.468;13.776;2023-08-17T09:58:11;4.68;;;3.67;;
22166;SDS011;11249;52.468;13.776;2023-08-17T10:00:48;4.65;;;3.58;;
22166;SDS011;11249;52.468;13.776;2023-08-17T10:03:18;3.92;;;3.40;;
22166;SDS011;11249;52.468;13.776;2023-08-17T10:05:47;5.25;;;3.70;;
22166;SDS011;11249;52.468;13.776;2023-08-17T10:08:21;5.47;;;4.07;;
22166;SDS011;11249;52.468;13.776;2023-08-17T10:10:49;4.22;;;3.50;;
22166;SDS011;11249;52.468;13.776;2023-08-17T10:13:26;6.63;;;4.18;;
22166;SDS011;11249;52.468;13.776;2023-08-17T10:18:45;8.32;;;4.50;;
22166;SDS011;11249;52.468;13.776;2023-08-17T10:21:23;5.05;;;3.97;;
22166;SDS011;11249;52.468;13.776;2023-08-17T10:23:56;5.95;;;4.72;;
22166;SDS011;11249;52.468;13.776;2023-08-17T10:26:23;6.13;;;3.90;;
22166;SDS011;11249;52.468;13.776;2023-08-17T10:28:51;5.82;;;4.45;;
22166;SDS011;11249;52.468;13.776;2023-08-17T10:31:20;4.73;;;4.10;;
22166;SDS011;11249;52.468;13.776;2023-08-17T10:33:47;8.07;;;4.53;;
22166;SDS011;11249;52.468;13.776;2023-08-17T10:36:15;4.82;;;4.40;;
22166;SDS011;11249;52.468;13.776;2023-08-17T10:38:42;4.72;;;3.67;;
22166;SDS011;11249;52.468;13.776;2023-08-17T10:43:52;5.32;;;4.38;;
22166;SDS011;11249;52.468;13.776;2023-08-17T10:46:19;9.63;;;4.50;;
22166;SDS011;11249;52.468;13.776;2023-08-17T10:48:46;6.63;;;4.25;;
22166;SDS011;11249;52.468;13.776;2023-08-17T10:51:13;4.45;;;3.67;;
22166;SDS011;11249;52.468;13.776;2023-08-17T10:53:42;3.78;;;3.47;;
22166;SDS011;11249;52.468;13.776;2023-08-17T10:56:10;4.88;;;3.83;;
22166;SDS011;11249;52.468;13.776;2023-08-17T10:58:39;4.82;;;4.00;;
22166;SDS011;11249;52.468;13.776;2023-08-17T11:01:08;6.63;;;4.38;;
22166;SDS011;11249;52.468;13.776;2023-08-17T11:03:36;4.63;;;4.22;;
22166;SDS011;11249;52.468;13.776;2023-08-17T11:06:15;8.00;;;4.70;;
22166;SDS011;11249;52.468;13.776;2023-08-17T11:08:51;6.53;;;4.95;;
22166;SDS011;11249;52.468;13.776;2023-08-17T11:11:20;5.07;;;4.50;;
22166;SDS011;11249;52.468;13.776;2023-08-17T11:13:48;5.03;;;4.55;;
22166;SDS011;11249;52.468;13.776;2023-08-17T11:16:21;4.65;;;4.20;;
22166;SDS011;11249;52.468;13.776;2023-08-17T11:18:48;5.70;;;4.65;;
22166;SDS011;11249;52.468;13.776;2023-08-17T11:21:19;7.68;;;4.40;;
22166;SDS011;11249;52.468;13.776;2023-08-17T11:23:46;5.43;;;4.70;;
22166;SDS011;11249;52.468;13.776;2023-08-17T11:26:17;6.05;;;4.63;;
22166;SDS011;11249;52.468;13.776;2023-08-17T11:28:45;5.45;;;4.47;;
22166;SDS011;11249;52.468;13.776;2023-08-17T11:31:13;5.15;;;4.68;;
22166;SDS011;11249;52.468;13.776;2023-08-17T11:33:43;5.85;;;4.50;;
22166;SDS011;11249;52.468;13.776;2023-08-17T11:38:41;5.47;;;4.57;;
22166;SDS011;11249;52.468;13.776;2023-08-17T11:41:09;6.03;;;4.40;;
22166;SDS011;11249;52.468;13.776;2023-08-17T11:43:43;4.85;;;4.20;;
22166;SDS011;11249;52.468;13.776;2023-08-17T11:46:11;6.25;;;4.82;;
22166;SDS011;11249;52.468;13.776;2023-08-17T11:48:38;5.68;;;4.90;;
22166;SDS011;11249;52.468;13.776;2023-08-17T11:51:05;5.53;;;5.05;;
22166;SDS011;11249;52.468;13.776;2023-08-17T11:53:33;5.22;;;4.70;;
22166;SDS011;11249;52.468;13.776;2023-08-17T11:56:00;5.40;;;4.95;;
22166;SDS011;11249;52.468;13.776;2023-08-17T11:58:36;5.63;;;5.15;;
22166;SDS011;11249;52.468;13.776;2023-08-17T12:01:10;5.28;;;4.47;;
22166;SDS011;11249;52.468;13.776;2023-08-17T12:03:39;5.80;;;5.18;;
22166;SDS011;11249;52.468;13.776;2023-08-17T12:06:10;5.22;;;4.72;;
22166;SDS011;11249;52.468;13.776;2023-08-17T12:08:41;6.57;;;4.90;;
22166;SDS011;11249;52.468;13.776;2023-08-17T12:11:13;6.88;;;4.60;;
22166;SDS011;11249;52.468;13.776;2023-08-17T12:13:42;5.38;;;4.88;;
22166;SDS011;11249;52.468;13.776;2023-08-17T12:16:16;5.47;;;4.45;;
22166;SDS011;11249;52.468;13.776;2023-08-17T12:18:45;6.35;;;5.00;;
22166;SDS011;11249;52.468;13.776;2023-08-17T12:21:14;6.00;;;4.75;;
22166;SDS011;11249;52.468;13.776;2023-08-17T12:23:41;4.68;;;4.28;;
22166;SDS011;11249;52.468;13.776;2023-08-17T12:28:44;4.65;;;4.25;;
22166;SDS011;11249;52.468;13.776;2023-08-17T12:31:10;6.25;;;4.45;;
22166;SDS011;11249;52.468;13.776;2023-08-17T12:33:37;4.63;;;4.20;;
22166;SDS011;11249;52.468;13.776;2023-08-17T12:36:04;4.95;;;4.20;;
22166;SDS011;11249;52.468;13.776;2023-08-17T12:38:33;5.13;;;4.47;;
22166;SDS011;11249;52.468;13.776;2023-08-17T12:40:59;4.80;;;4.40;;
22166;SDS011;11249;52.468;13.776;2023-08-17T12:43:32;6.13;;;4.60;;
22166;SDS011;11249;52.468;13.776;2023-08-17T12:45:58;5.88;;;4.43;;
22166;SDS011;11249;52.468;13.776;2023-08-17T12:48:25;4.90;;;4.43;;
22166;SDS011;11249;52.468;13.776;2023-08-17T12:50:52;6.75;;;4.50;;
22166;SDS011;11249;52.468;13.776;2023-08-17T12:53:18;6.57;;;3.67;;
22166;SDS011;11249;52.468;13.776;2023-08-17T12:55:45;4.35;;;3.95;;
22166;SDS011;11249;52.468;13.776;2023-08-17T12:58:12;4.03;;;3.55;;
22166;SDS011;11249;52.468;13.776;2023-08-17T13:00:38;5.90;;;4.75;;
22166;SDS011;11249;52.468;13.776;2023-08-17T13:03:05;4.30;;;3.90;;
22166;SDS011;11249;52.468;13.776;2023-08-17T13:05:35;5.25;;;4.00;;
22166;SDS011;11249;52.468;13.776;2023-08-17T13:08:01;4.18;;;3.78;;
22166;SDS011;11249;52.468;13.776;2023-08-17T13:10:28;4.75;;;3.63;;
22166;SDS011;11249;52.468;13.776;2023-08-17T13:12:55;4.10;;;3.70;;
22166;SDS011;11249;52.468;13.776;2023-08-17T13:15:25;5.35;;;3.55;;
22166;SDS011;11249;52.468;13.776;2023-08-17T13:17:51;5.20;;;3.67;;
22166;SDS011;11249;52.468;13.776;2023-08-17T13:20:18;5.10;;;3.53;;
22166;SDS011;11249;52.468;13.776;2023-08-17T13:22:45;3.83;;;3.30;;
22166;SDS011;11249;52.468;13.776;2023-08-17T13:25:12;6.32;;;3.78;;
22166;SDS011;11249;52.468;13.776;2023-08-17T13:27:39;7.13;;;4.10;;
22166;SDS011;11249;52.468;13.776;2023-08-17T13:30:06;3.97;;;3.58;;
22166;SDS011;11249;52.468;13.776;2023-08-17T13:32:33;4.38;;;3.47;;
22166;SDS011;11249;52.468;13.776;2023-08-17T13:35:01;3.58;;;3.28;;
22166;SDS011;11249;52.468;13.776;2023-08-17T13:37:28;5.75;;;3.30;;
22166;SDS011;11249;52.468;13.776;2023-08-17T13:39:55;4.75;;;3.47;;
22166;SDS011;11249;52.468;13.776;2023-08-17T13:42:22;4.45;;;3.25;;
22166;SDS011;11249;52.468;13.776;2023-08-17T13:44:49;4.43;;;3.63;;
22166;SDS011;11249;52.468;13.776;2023-08-17T13:47:15;5.78;;;3.78;;
22166;SDS011;11249;52.468;13.776;2023-08-17T13:49:42;3.67;;;3.38;;
22166;SDS011;11249;52.468;13.776;2023-08-17T13:52:08;6.25;;;3.58;;
22166;SDS011;11249;52.468;13.776;2023-08-17T13:54:35;3.92;;;3.20;;
22166;SDS011;11249;52.468;13.776;2023-08-17T13:57:02;4.32;;;3.53;;
22166;SDS011;11249;52.468;13.776;2023-08-17T13:59:29;4.40;;;3.50;;
22166;SDS011;11249;52.468;13.776;2023-08-17T14:01:56;7.45;;;3.88;;
22166;SDS011;11249;52.468;13.776;2023-08-17T14:04:22;3.60;;;3.30;;
22166;SDS011;11249;52.468;13.776;2023-08-17T14:06:49;4.88;;;3.28;;
22166;SDS011;11249;52.468;13.776;2023-08-17T14:09:17;5.32;;;3.90;;
22166;SDS011;11249;52.468;13.776;2023-08-17T14:11:44;3.92;;;3.55;;
22166;SDS011;11249;52.468;13.776;2023-08-17T14:14:11;4.57;;;3.50;;
22166;SDS011;11249;52.468;13.776;2023-08-17T14:16:37;4.22;;;3.50;;
22166;SDS011;11249;52.468;13.776;2023-08-17T14:19:04;3.88;;;3.40;;
22166;SDS011;11249;52.468;13.776;2023-08-17T14:21:31;4.38;;;3.63;;
22166;SDS011;11249;52.468;13.776;2023-08-17T14:23:57;5.22;;;3.40;;
22166;SDS011;11249;52.468;13.776;2023-08-17T14:26:24;4.95;;;3.38;;
22166;SDS011;11249;52.468;13.776;2023-08-17T14:28:51;4.38;;;3.08;;
22166;SDS011;11249;52.468;13.776;2023-08-17T14:31:17;8.20;;;3.65;;
22166;SDS011;11249;52.468;13.776;2023-08-17T14:33:44;5.60;;;3.30;;
22166;SDS011;11249;52.468;13.776;2023-08-17T14:36:15;5.95;;;3.60;;
22166;SDS011;11249;52.468;13.776;2023-08-17T14:38:46;4.00;;;3.65;;
22166;SDS011;11249;52.468;13.776;2023-08-17T14:41:13;3.53;;;3.20;;
22166;SDS011;11249;52.468;13.776;2023-08-17T14:43:40;3.50;;;3.20;;
22166;SDS011;11249;52.468;13.776;2023-08-17T14:46:06;4.38;;;3.40;;
22166;SDS011;11249;52.468;13.776;2023-08-17T14:48:39;3.78;;;3.30;;
22166;SDS011;11249;52.468;13.776;2023-08-17T14:51:06;6.55;;;3.40;;